Time;durP1;ratioP1;P1;durP2;ratioP2;P2;SDS_P1;SDS_P2;PMS_P1;PMS_P2;Temp;Humidity;BMP_temperature;BMP_pressure;BME280_temperature;BME280_humidity;BME280_pressure;Samples;Min_cycle;Max_cycle;Signal;HPM_P1;HPM_P2
2022/07/16 00:02:39;;;;;;;8.57;2.35;;;17.20;99.90;;;;;;5032971;28;20041;-58
2022/07/16 00:05:05;;;;;;;6.15;1.85;;;17.20;99.90;;;;;;5036326;28;20036;-59
2022/07/16 00:07:31;;;;;;;4.60;2.05;;;17.20;99.90;;;;;;5047406;28;20108;-59
2022/07/16 00:09:58;;;;;;;3.60;1.63;;;17.20;99.90;;;;;;5035051;28;20129;-59
2022/07/16 00:12:25;;;;;;;4.25;1.60;;;17.10;99.90;;;;;;5030858;28;20480;-60
2022/07/16 00:14:50;;;;;;;3.80;1.33;;;17.30;99.90;;;;;;5040914;28;20040;-58
2022/07/16 00:17:16;;;;;;;3.33;1.65;;;17.30;99.90;;;;;;5037313;28;20033;-58
2022/07/16 00:19:42;;;;;;;3.47;1.75;;;17.30;99.90;;;;;;5043555;28;20032;-61
2022/07/16 00:22:09;;;;;;;4.10;1.90;;;17.10;99.90;;;;;;5037910;28;20045;-60
2022/07/16 00:24:35;;;;;;;3.20;1.73;;;16.90;99.90;;;;;;5035563;28;20041;-60
2022/07/16 00:27:00;;;;;;;4.15;1.60;;;16.70;99.90;;;;;;5034242;28;20496;-60
2022/07/16 00:29:26;;;;;;;3.17;1.50;;;16.60;99.90;;;;;;5036226;28;20044;-60
2022/07/16 00:31:53;;;;;;;3.38;1.50;;;16.50;99.90;;;;;;5040430;28;20036;-58
2022/07/16 00:34:19;;;;;;;3.15;1.27;;;16.40;99.90;;;;;;5036127;28;20477;-59
2022/07/16 00:36:45;;;;;;;3.78;1.38;;;16.40;99.90;;;;;;5041424;28;20036;-59
2022/07/16 00:39:11;;;;;;;5.13;1.60;;;16.40;99.90;;;;;;5044479;28;20091;-59
2022/07/16 00:41:39;;;;;;;3.95;1.70;;;16.20;99.90;;;;;;5040521;28;20025;-59
2022/07/16 00:44:09;;;;;;;2.72;1.60;;;16.20;99.90;;;;;;5046914;28;20037;-59
2022/07/16 00:46:36;;;;;;;4.30;1.67;;;16.10;99.90;;;;;;5039933;28;20587;-58
2022/07/16 00:49:02;;;;;;;2.63;1.52;;;16.00;99.90;;;;;;5038926;28;20124;-59
2022/07/16 00:51:28;;;;;;;4.15;1.40;;;16.00;99.90;;;;;;5019587;28;20108;-59
2022/07/16 00:53:55;;;;;;;5.05;1.92;;;15.90;99.90;;;;;;5040110;28;20115;-60
2022/07/16 00:56:21;;;;;;;4.45;1.70;;;15.90;99.90;;;;;;5042983;28;20032;-58
2022/07/16 00:58:47;;;;;;;3.53;1.80;;;15.90;99.90;;;;;;5048674;28;20081;-60
2022/07/16 01:01:14;;;;;;;3.45;2.13;;;15.80;99.90;;;;;;5045569;28;20443;-60
2022/07/16 01:03:42;;;;;;;2.55;1.80;;;15.70;99.90;;;;;;5032611;28;20484;-60
2022/07/16 01:06:09;;;;;;;4.95;1.75;;;15.70;99.90;;;;;;5039551;28;20021;-59
2022/07/16 01:08:37;;;;;;;3.80;1.90;;;15.70;99.90;;;;;;5032127;28;20033;-59
2022/07/16 01:11:06;;;;;;;6.38;1.50;;;15.70;99.90;;;;;;5043144;28;20031;-59
2022/07/16 01:13:33;;;;;;;3.25;1.63;;;15.70;99.90;;;;;;5033512;28;20036;-59
2022/07/16 01:15:59;;;;;;;2.17;1.50;;;15.60;99.90;;;;;;5040613;28;20025;-59
2022/07/16 01:18:26;;;;;;;3.05;1.40;;;15.50;99.90;;;;;;5044067;28;20083;-58
2022/07/16 01:20:51;;;;;;;4.80;1.98;;;15.50;99.90;;;;;;5031025;28;20033;-58
2022/07/16 01:23:21;;;;;;;4.97;1.98;;;15.60;99.90;;;;;;5033838;28;20053;-58
2022/07/16 01:25:47;;;;;;;2.50;1.55;;;15.70;99.90;;;;;;5030228;28;20489;-58
2022/07/16 01:28:13;;;;;;;3.38;1.90;;;15.70;99.90;;;;;;5035586;28;20044;-59
2022/07/16 01:30:40;;;;;;;2.60;1.50;;;15.80;99.90;;;;;;5031250;28;20064;-57
2022/07/16 01:33:30;;;;;;;2.85;1.98;;;15.80;99.90;;;;;;5025318;28;20576;-58
2022/07/16 01:36:01;;;;;;;3.22;1.55;;;15.70;99.90;;;;;;5035513;28;20033;-58
2022/07/16 01:38:28;;;;;;;1.87;1.63;;;15.70;99.90;;;;;;5034676;28;20120;-59
2022/07/16 01:40:54;;;;;;;2.38;1.85;;;15.70;99.90;;;;;;5038599;28;20362;-59
2022/07/16 01:43:23;;;;;;;5.53;2.00;;;15.80;99.90;;;;;;5027177;28;20026;-58
2022/07/16 01:45:50;;;;;;;3.58;2.05;;;15.80;99.90;;;;;;5012049;28;20033;-59
2022/07/16 01:48:16;;;;;;;5.57;1.92;;;15.70;99.90;;;;;;5033618;28;20067;-59
2022/07/16 01:50:43;;;;;;;4.45;1.75;;;15.70;99.90;;;;;;5035565;28;20480;-59
2022/07/16 01:53:09;;;;;;;4.70;1.83;;;15.60;99.90;;;;;;5041181;28;20041;-59
2022/07/16 01:55:36;;;;;;;3.15;1.85;;;15.60;99.90;;;;;;5048624;28;20040;-59
2022/07/16 01:58:06;;;;;;;4.18;1.95;;;15.60;99.90;;;;;;5037057;28;20025;-59
2022/07/16 02:00:33;;;;;;;2.90;1.90;;;15.60;99.90;;;;;;5037731;28;20040;-58
2022/07/16 02:02:59;;;;;;;4.35;2.17;;;15.50;99.90;;;;;;5046049;28;20111;-58
2022/07/16 02:05:25;;;;;;;2.15;1.75;;;15.50;99.90;;;;;;5039331;28;20120;-58
2022/07/16 02:07:51;;;;;;;2.28;1.70;;;15.40;99.90;;;;;;5045971;28;20121;-58
2022/07/16 02:10:16;;;;;;;2.88;1.85;;;15.30;99.90;;;;;;5042096;28;20448;-59
2022/07/16 02:12:42;;;;;;;3.03;1.92;;;15.30;99.90;;;;;;5036973;28;20547;-58
2022/07/16 02:15:08;;;;;;;2.15;1.75;;;15.20;99.90;;;;;;5036632;28;20427;-58
2022/07/16 02:17:35;;;;;;;3.15;2.08;;;15.20;99.90;;;;;;5022763;28;20087;-58
2022/07/16 02:20:03;;;;;;;4.43;2.38;;;15.30;99.90;;;;;;5040958;28;20083;-58
2022/07/16 02:22:28;;;;;;;5.50;2.13;;;15.30;99.90;;;;;;5039347;28;20060;-58
2022/07/16 02:24:54;;;;;;;3.42;2.03;;;15.30;99.90;;;;;;5046261;28;20397;-58
2022/07/16 02:27:20;;;;;;;3.05;1.85;;;15.30;99.90;;;;;;5041522;28;20027;-58
2022/07/16 02:29:45;;;;;;;4.95;2.00;;;15.30;99.90;;;;;;5046264;28;20025;-58
2022/07/16 02:32:11;;;;;;;3.55;2.28;;;15.30;99.90;;;;;;5045252;28;20021;-58
2022/07/16 02:34:37;;;;;;;3.45;2.08;;;15.30;99.90;;;;;;5040773;28;20033;-58
2022/07/16 02:37:03;;;;;;;4.82;2.22;;;15.30;99.90;;;;;;5041061;28;20503;-60
2022/07/16 02:39:28;;;;;;;2.42;2.15;;;15.30;99.90;;;;;;5042014;28;20037;-59
2022/07/16 02:41:54;;;;;;;3.90;1.90;;;15.30;99.90;;;;;;5038311;28;20025;-58
2022/07/16 02:44:20;;;;;;;4.45;2.10;;;15.30;99.90;;;;;;5038669;28;20038;-59
2022/07/16 02:46:45;;;;;;;5.00;2.13;;;15.40;99.90;;;;;;5037830;28;20123;-59
2022/07/16 02:49:11;;;;;;;2.30;2.10;;;15.30;99.90;;;;;;5036873;28;20488;-59
2022/07/16 02:51:37;;;;;;;3.15;1.90;;;15.40;99.90;;;;;;5023476;28;20398;-59
2022/07/16 02:54:04;;;;;;;3.47;1.92;;;15.50;99.90;;;;;;5033912;28;20025;-58
2022/07/16 02:56:31;;;;;;;3.85;2.10;;;15.50;99.90;;;;;;5042432;28;20483;-59
2022/07/16 02:58:56;;;;;;;2.30;1.80;;;15.40;99.90;;;;;;5036651;28;20739;-59
2022/07/16 03:01:22;;;;;;;2.63;1.90;;;15.30;99.90;;;;;;5040925;28;20041;-59
2022/07/16 03:03:48;;;;;;;4.80;1.73;;;15.20;99.90;;;;;;5037479;28;20052;-59
2022/07/16 03:06:14;;;;;;;2.00;1.80;;;15.10;99.90;;;;;;5041670;28;20040;-59
2022/07/16 03:08:40;;;;;;;3.33;1.90;;;15.10;99.90;;;;;;5039485;28;20307;-59
2022/07/16 03:11:05;;;;;;;3.42;2.20;;;15.00;99.90;;;;;;5041398;28;20116;-59
2022/07/16 03:13:31;;;;;;;3.50;2.22;;;15.10;99.90;;;;;;5040545;28;20057;-58
2022/07/16 03:15:56;;;;;;;3.47;2.15;;;15.10;99.90;;;;;;5027682;28;20022;-58
2022/07/16 03:18:22;;;;;;;2.60;2.33;;;15.00;99.90;;;;;;5040812;28;20087;-59
2022/07/16 03:20:48;;;;;;;3.63;2.13;;;15.00;99.90;;;;;;5035829;28;20034;-58
2022/07/16 03:23:14;;;;;;;3.40;1.92;;;15.00;99.90;;;;;;5034325;28;20057;-59
2022/07/16 03:25:41;;;;;;;2.25;1.90;;;15.00;99.90;;;;;;5029427;28;20037;-59
2022/07/16 03:28:08;;;;;;;3.03;1.85;;;14.90;99.90;;;;;;5034495;28;20025;-59
2022/07/16 03:30:35;;;;;;;5.05;1.92;;;14.90;99.90;;;;;;5032586;28;20521;-59
2022/07/16 03:33:01;;;;;;;2.25;1.75;;;14.90;99.90;;;;;;5027708;28;20030;-59
2022/07/16 03:35:26;;;;;;;2.33;1.63;;;14.80;99.90;;;;;;5040613;28;20029;-59
2022/07/16 03:40:36;;;;;;;1.85;1.75;;;14.80;99.90;;;;;;5045374;28;20120;-59
2022/07/16 03:43:03;;;;;;;3.70;2.22;;;14.80;99.90;;;;;;5044280;28;20107;-59
2022/07/16 03:45:28;;;;;;;3.20;2.22;;;14.80;99.90;;;;;;5042125;28;20037;-59
2022/07/16 03:47:54;;;;;;;3.13;2.17;;;14.80;99.90;;;;;;5034362;28;20025;-59
2022/07/16 03:50:20;;;;;;;2.10;1.77;;;14.70;99.90;;;;;;5035281;28;20486;-59
2022/07/16 03:52:46;;;;;;;2.92;2.00;;;14.70;99.90;;;;;;5033409;28;20086;-58
2022/07/16 03:55:12;;;;;;;3.25;2.20;;;14.70;99.90;;;;;;5037654;28;20033;-58
2022/07/16 03:57:38;;;;;;;2.92;2.05;;;14.70;99.90;;;;;;5032850;28;20071;-58
2022/07/16 04:00:05;;;;;;;3.22;1.70;;;14.70;99.90;;;;;;5049181;28;20067;-59
2022/07/16 04:02:31;;;;;;;2.88;1.98;;;14.70;99.90;;;;;;5041115;28;20044;-59
2022/07/16 04:04:56;;;;;;;2.40;2.20;;;14.70;99.90;;;;;;5036795;28;20041;-59
2022/07/16 04:07:22;;;;;;;2.97;2.00;;;14.70;99.90;;;;;;5036298;28;20025;-59
2022/07/16 04:09:48;;;;;;;2.20;1.85;;;14.70;99.90;;;;;;5040778;28;20032;-59
2022/07/16 04:12:14;;;;;;;2.28;2.03;;;14.70;99.90;;;;;;5036862;28;20455;-58
2022/07/16 04:14:40;;;;;;;5.53;2.33;;;14.60;99.90;;;;;;5043641;28;20095;-59
2022/07/16 04:17:05;;;;;;;3.42;2.47;;;14.60;99.90;;;;;;5037966;28;20022;-59
2022/07/16 04:19:31;;;;;;;2.83;2.22;;;14.50;99.90;;;;;;5035708;28;20041;-59
2022/07/16 04:21:57;;;;;;;3.83;1.92;;;14.50;99.90;;;;;;5038921;28;20049;-60
2022/07/16 04:24:22;;;;;;;3.42;1.85;;;14.50;99.90;;;;;;5036435;28;20037;-60
2022/07/16 04:26:48;;;;;;;5.60;1.83;;;14.40;99.90;;;;;;5040462;28;20044;-60
2022/07/16 04:29:14;;;;;;;4.20;1.80;;;14.40;99.90;;;;;;5036542;28;20025;-59
2022/07/16 04:31:40;;;;;;;3.25;2.05;;;14.40;99.90;;;;;;5032620;28;20086;-60
2022/07/16 04:34:06;;;;;;;2.55;2.28;;;14.40;99.90;;;;;;5035780;28;20077;-59
2022/07/16 04:36:31;;;;;;;3.90;2.08;;;14.40;99.90;;;;;;5046815;28;20051;-59
2022/07/16 04:38:57;;;;;;;4.70;2.10;;;14.40;99.90;;;;;;5038390;28;20033;-59
2022/07/16 04:41:23;;;;;;;4.10;1.88;;;14.40;99.90;;;;;;5036173;28;20170;-58
2022/07/16 04:43:48;;;;;;;3.78;2.00;;;14.40;99.90;;;;;;5041240;28;20033;-59
2022/07/16 04:46:14;;;;;;;4.43;2.28;;;14.50;99.90;;;;;;5036028;28;20108;-59
2022/07/16 04:48:40;;;;;;;2.42;2.00;;;14.50;99.90;;;;;;5044312;28;20025;-60
2022/07/16 04:51:06;;;;;;;4.20;2.00;;;14.50;99.90;;;;;;5035266;28;20504;-59
2022/07/16 04:53:34;;;;;;;4.68;2.00;;;14.40;99.90;;;;;;5049634;28;20033;-59
2022/07/16 04:55:59;;;;;;;5.75;2.05;;;14.40;99.90;;;;;;5046632;28;20029;-58
2022/07/16 04:58:25;;;;;;;3.85;2.50;;;14.40;99.90;;;;;;5034981;28;20095;-58
2022/07/16 05:00:51;;;;;;;1.95;1.50;;;14.30;99.90;;;;;;5036422;28;20117;-58
2022/07/16 05:03:16;;;;;;;1.88;1.60;;;14.30;99.90;;;;;;5038995;28;20393;-58
2022/07/16 05:05:42;;;;;;;2.53;1.90;;;14.30;99.90;;;;;;5047230;28;20108;-58
2022/07/16 05:08:09;;;;;;;3.42;2.40;;;14.30;99.90;;;;;;5044744;28;20029;-58
2022/07/16 05:10:35;;;;;;;4.07;2.00;;;14.30;99.90;;;;;;5047947;28;20083;-58
2022/07/16 05:13:02;;;;;;;3.53;2.05;;;14.40;99.90;;;;;;5042023;28;20021;-57
2022/07/16 05:15:29;;;;;;;2.95;1.70;;;14.40;99.90;;;;;;5037965;28;20555;-59
2022/07/16 05:17:55;;;;;;;3.67;1.95;;;14.50;99.90;;;;;;5047115;28;20135;-59
2022/07/16 05:20:20;;;;;;;4.30;2.20;;;14.50;99.90;;;;;;5041071;28;20493;-58
2022/07/16 05:22:47;;;;;;;3.42;2.33;;;14.50;99.90;;;;;;5046782;28;20049;-58
2022/07/16 05:25:14;;;;;;;4.82;2.40;;;14.50;99.90;;;;;;5043819;28;20080;-58
2022/07/16 05:27:39;;;;;;;2.15;1.90;;;14.50;99.90;;;;;;5036565;28;20029;-58
2022/07/16 05:30:06;;;;;;;5.13;2.33;;;14.50;99.90;;;;;;5037941;28;20033;-58
2022/07/16 05:32:32;;;;;;;3.75;2.38;;;14.60;99.90;;;;;;5038288;28;20171;-59
2022/07/16 05:34:57;;;;;;;3.38;2.30;;;14.50;99.90;;;;;;5046602;28;20116;-58
2022/07/16 05:37:23;;;;;;;3.22;2.30;;;14.50;99.90;;;;;;5040295;28;20388;-59
2022/07/16 05:39:49;;;;;;;3.00;2.10;;;14.70;99.90;;;;;;5046604;28;20025;-59
2022/07/16 05:42:14;;;;;;;4.72;2.13;;;14.60;99.90;;;;;;5043097;28;20469;-58
2022/07/16 05:44:40;;;;;;;3.08;1.80;;;14.60;99.90;;;;;;5047122;28;20033;-58
2022/07/16 05:47:06;;;;;;;3.63;2.20;;;14.60;99.90;;;;;;5045666;28;20116;-59
2022/07/16 05:49:31;;;;;;;5.50;2.10;;;14.50;99.90;;;;;;5042242;28;20029;-60
2022/07/16 05:51:57;;;;;;;2.22;2.08;;;14.60;99.90;;;;;;5022484;28;20121;-59
2022/07/16 05:54:23;;;;;;;4.40;2.28;;;14.60;99.90;;;;;;5038881;28;20083;-61
2022/07/16 05:56:49;;;;;;;3.15;2.00;;;14.60;99.90;;;;;;5030733;28;20025;-59
2022/07/16 05:59:15;;;;;;;3.72;2.25;;;14.60;99.90;;;;;;5043313;28;20028;-58
2022/07/16 06:01:41;;;;;;;3.67;2.70;;;14.60;99.90;;;;;;5039665;28;20029;-60
2022/07/16 06:04:06;;;;;;;4.38;2.20;;;14.70;99.90;;;;;;5042621;28;20039;-58
2022/07/16 06:06:32;;;;;;;3.38;2.15;;;14.70;99.90;;;;;;5036661;28;20025;-59
2022/07/16 06:08:58;;;;;;;3.70;1.88;;;14.80;99.90;;;;;;5029986;28;20796;-58
2022/07/16 06:11:24;;;;;;;3.70;2.28;;;14.80;99.90;;;;;;5043405;28;20025;-57
2022/07/16 06:13:50;;;;;;;4.93;2.17;;;14.80;99.90;;;;;;5038372;28;20496;-58
2022/07/16 06:16:15;;;;;;;3.70;2.10;;;14.80;99.90;;;;;;5043441;28;20162;-59
2022/07/16 06:18:44;;;;;;;2.08;1.88;;;14.80;99.90;;;;;;5039472;28;20530;-58
2022/07/16 06:21:10;;;;;;;4.65;2.00;;;14.90;99.90;;;;;;5030867;28;20107;-58
2022/07/16 06:23:35;;;;;;;3.53;2.00;;;14.90;99.90;;;;;;5035169;28;20586;-59
2022/07/16 06:26:01;;;;;;;1.92;1.50;;;15.10;99.90;;;;;;5030099;28;20041;-59
2022/07/16 06:28:28;;;;;;;3.78;2.25;;;15.20;99.90;;;;;;5035929;28;20078;-59
2022/07/16 06:30:53;;;;;;;5.28;2.70;;;15.20;99.90;;;;;;5030608;28;20091;-60
2022/07/16 06:33:19;;;;;;;3.42;2.05;;;15.30;99.90;;;;;;5029805;28;20029;-60
2022/07/16 06:35:45;;;;;;;5.82;1.98;;;15.40;99.90;;;;;;5038180;28;20025;-59
2022/07/16 06:38:11;;;;;;;2.10;1.67;;;15.50;99.90;;;;;;5030774;28;20069;-59
2022/07/16 06:40:36;;;;;;;4.30;1.70;;;15.50;99.90;;;;;;5035106;28;20034;-59
2022/07/16 06:43:02;;;;;;;2.47;1.60;;;15.60;99.90;;;;;;5035100;28;20112;-59
2022/07/16 06:45:28;;;;;;;2.50;1.60;;;15.60;99.90;;;;;;5038492;28;20483;-58
2022/07/16 06:47:53;;;;;;;3.92;2.05;;;15.70;99.90;;;;;;5030357;28;20021;-58
2022/07/16 06:50:19;;;;;;;2.25;1.50;;;15.80;99.90;;;;;;5029700;28;20068;-58
2022/07/16 06:52:45;;;;;;;3.03;1.75;;;15.80;99.90;;;;;;5038174;28;20033;-58
2022/07/16 06:55:10;;;;;;;5.47;3.00;;;15.90;99.90;;;;;;5034483;28;20488;-58
2022/07/16 06:57:36;;;;;;;2.63;1.45;;;16.00;99.90;;;;;;5044958;28;20477;-60
2022/07/16 07:00:02;;;;;;;1.75;1.60;;;16.00;99.90;;;;;;5044702;28;20111;-58
2022/07/16 07:02:28;;;;;;;3.60;1.80;;;16.00;99.90;;;;;;5044154;28;20025;-58
2022/07/16 07:04:54;;;;;;;3.75;1.15;;;16.20;99.90;;;;;;5036311;28;20040;-58
2022/07/16 07:07:19;;;;;;;2.25;1.52;;;16.30;99.90;;;;;;5033424;28;20492;-58
2022/07/16 07:09:45;;;;;;;4.00;1.30;;;16.30;99.90;;;;;;5038046;28;20392;-59
2022/07/16 07:12:10;;;;;;;1.55;1.13;;;16.20;99.90;;;;;;5036696;28;20104;-59
2022/07/16 07:14:36;;;;;;;2.05;1.30;;;16.30;99.90;;;;;;5037064;28;20084;-59
2022/07/16 07:17:02;;;;;;;2.35;1.23;;;16.40;99.90;;;;;;5048555;28;20028;-58
2022/07/16 07:19:28;;;;;;;3.88;1.40;;;16.50;99.90;;;;;;5048428;28;20124;-58
2022/07/16 07:21:53;;;;;;;2.65;1.10;;;16.50;99.90;;;;;;5039973;28;20045;-58
2022/07/16 07:24:19;;;;;;;5.05;1.95;;;16.60;99.90;;;;;;5037250;28;20044;-59
2022/07/16 07:26:45;;;;;;;2.47;1.27;;;16.70;99.90;;;;;;5033928;28;20025;-59
2022/07/16 07:29:10;;;;;;;4.55;2.08;;;16.70;99.90;;;;;;5037900;28;20064;-59
2022/07/16 07:31:36;;;;;;;4.85;1.42;;;16.90;99.90;;;;;;5046538;28;20029;-59
2022/07/16 07:34:02;;;;;;;4.28;2.63;;;17.00;99.90;;;;;;5037610;28;20026;-58
2022/07/16 07:36:28;;;;;;;3.00;1.30;;;17.00;99.90;;;;;;5047199;28;20083;-58
2022/07/16 07:38:53;;;;;;;3.63;1.42;;;17.10;99.90;;;;;;5040035;28;20029;-59
2022/07/16 07:41:19;;;;;;;4.68;1.63;;;17.10;99.90;;;;;;5036910;28;20079;-61
2022/07/16 07:43:45;;;;;;;5.80;1.80;;;17.20;99.90;;;;;;5038030;28;20420;-60
2022/07/16 07:46:10;;;;;;;4.50;1.33;;;17.30;99.90;;;;;;5037434;28;20166;-60
2022/07/16 07:48:36;;;;;;;3.58;1.48;;;17.40;99.90;;;;;;5046017;28;20426;-59
2022/07/16 07:51:02;;;;;;;4.03;1.20;;;17.50;99.90;;;;;;5035332;28;20029;-59
2022/07/16 07:53:28;;;;;;;7.85;1.98;;;17.60;99.90;;;;;;5050118;28;20025;-59
2022/07/16 07:55:54;;;;;;;3.60;1.27;;;17.80;99.90;;;;;;5041449;28;20174;-58
2022/07/16 07:58:19;;;;;;;5.57;1.42;;;17.90;99.90;;;;;;5048699;28;20060;-59
2022/07/16 08:00:45;;;;;;;3.20;1.25;;;18.00;99.90;;;;;;5047987;28;20029;-58
2022/07/16 08:03:11;;;;;;;1.20;1.00;;;18.10;99.90;;;;;;5043381;28;20175;-59
2022/07/16 08:05:37;;;;;;;3.30;1.27;;;18.20;99.90;;;;;;5049627;28;20540;-59
2022/07/16 08:08:04;;;;;;;4.13;1.30;;;18.30;99.90;;;;;;5044558;28;20021;-59
2022/07/16 08:10:29;;;;;;;6.97;1.40;;;18.40;99.90;;;;;;5039392;28;20029;-59
2022/07/16 08:12:55;;;;;;;4.53;1.50;;;18.50;99.90;;;;;;5037827;28;20375;-60
2022/07/16 08:15:21;;;;;;;2.35;1.20;;;18.60;99.90;;;;;;5040138;28;20033;-59
2022/07/16 08:17:47;;;;;;;2.38;1.20;;;18.70;99.90;;;;;;5047135;28;20033;-59
2022/07/16 08:20:13;;;;;;;1.40;1.00;;;18.70;99.90;;;;;;5042989;28;20087;-60
2022/07/16 08:22:39;;;;;;;2.50;1.40;;;18.80;99.90;;;;;;5037901;28;20432;-60
2022/07/16 08:27:51;;;;;;;4.50;1.48;;;19.10;99.90;;;;;;5032870;28;20036;-60
2022/07/16 08:30:17;;;;;;;3.63;1.30;;;19.30;99.90;;;;;;5037249;28;20068;-60
2022/07/16 08:32:42;;;;;;;2.25;0.90;;;19.40;99.90;;;;;;5038587;28;20048;-60
2022/07/16 08:35:08;;;;;;;2.03;1.00;;;19.50;99.90;;;;;;5048159;28;20053;-59
2022/07/16 08:37:36;;;;;;;2.63;1.13;;;19.70;99.90;;;;;;5040477;28;20034;-60
2022/07/16 08:40:09;;;;;;;2.25;1.23;;;19.70;99.90;;;;;;5039402;28;20387;-60
2022/07/16 08:42:36;;;;;;;1.73;1.08;;;19.90;99.90;;;;;;5033900;28;20055;-60
2022/07/16 08:45:05;;;;;;;3.60;1.10;;;19.80;99.90;;;;;;5039744;28;20036;-59
2022/07/16 08:47:32;;;;;;;4.75;1.17;;;20.00;99.90;;;;;;5043065;28;20064;-58
2022/07/16 08:50:13;;;;;;;3.50;0.80;;;20.10;99.90;;;;;;5038096;28;20105;-59
2022/07/16 08:52:53;;;;;;;2.20;1.08;;;20.40;99.90;;;;;;5029574;28;20021;-58
2022/07/16 08:55:23;;;;;;;3.22;1.30;;;20.50;99.90;;;;;;5026108;28;20439;-59
2022/07/16 08:57:49;;;;;;;5.78;0.98;;;20.70;99.90;;;;;;5045549;28;20021;-59
2022/07/16 09:00:16;;;;;;;2.75;1.15;;;20.80;99.90;;;;;;5037863;28;20033;-59
2022/07/16 09:02:42;;;;;;;1.42;0.88;;;20.90;99.90;;;;;;5043730;28;20025;-59
2022/07/16 09:05:08;;;;;;;2.60;1.00;;;21.00;99.90;;;;;;5037322;28;20086;-59
2022/07/16 09:07:34;;;;;;;2.78;1.30;;;21.00;99.90;;;;;;5034481;28;20025;-59
2022/07/16 09:10:01;;;;;;;2.80;0.93;;;21.30;99.90;;;;;;5033309;28;20028;-58
2022/07/16 09:12:34;;;;;;;5.93;1.45;;;21.30;99.90;;;;;;5049619;28;20119;-56
2022/07/16 09:15:00;;;;;;;2.05;1.27;;;21.40;99.90;;;;;;5039956;28;20021;-58
2022/07/16 09:17:26;;;;;;;2.25;1.00;;;21.40;99.90;;;;;;5045975;28;20048;-58
2022/07/16 09:19:51;;;;;;;2.90;1.63;;;21.40;99.90;;;;;;5031231;28;20072;-59
2022/07/16 09:22:17;;;;;;;6.18;1.55;;;21.60;99.90;;;;;;5036762;28;20053;-59
2022/07/16 09:24:44;;;;;;;1.23;0.93;;;21.60;99.90;;;;;;5043840;28;20036;-59
2022/07/16 09:27:12;;;;;;;2.47;1.15;;;21.60;99.90;;;;;;5038247;28;20077;-59
2022/07/16 09:30:02;;;;;;;1.55;1.30;;;21.80;99.90;;;;;;5046723;28;20025;-59
2022/07/16 09:32:39;;;;;;;2.47;0.90;;;22.00;99.90;;;;;;5033604;28;20037;-59
2022/07/16 09:35:16;;;;;;;4.35;1.45;;;22.10;99.90;;;;;;5041423;28;20365;-59
2022/07/16 09:37:57;;;;;;;3.70;0.90;;;22.20;99.90;;;;;;5039559;28;20038;-58
2022/07/16 09:40:44;;;;;;;1.63;0.88;;;22.30;99.90;;;;;;5042537;28;20021;-58
2022/07/16 09:43:13;;;;;;;2.53;1.05;;;22.30;99.90;;;;;;5031573;28;20139;-58
2022/07/16 09:45:43;;;;;;;1.85;0.93;;;22.40;99.90;;;;;;5043174;28;20090;-58
2022/07/16 09:48:30;;;;;;;4.03;1.20;;;22.20;99.90;;;;;;5034507;28;20035;-58
2022/07/16 09:50:58;;;;;;;4.22;1.13;;;22.30;99.90;;;;;;5034145;28;20029;-58
2022/07/16 09:53:27;;;;;;;2.50;1.10;;;22.50;99.90;;;;;;5032033;28;20030;-58
2022/07/16 09:55:53;;;;;;;3.97;1.02;;;22.50;99.90;;;;;;5044323;28;20083;-58
2022/07/16 09:58:19;;;;;;;4.72;1.55;;;22.60;99.90;;;;;;5045771;28;20032;-58
2022/07/16 10:00:45;;;;;;;1.85;1.05;;;22.70;99.90;;;;;;5046018;28;20446;-58
2022/07/16 10:03:11;;;;;;;2.60;1.10;;;22.80;99.90;;;;;;5041174;28;20109;-58
2022/07/16 10:05:37;;;;;;;1.85;1.20;;;22.90;99.90;;;;;;5046903;28;20111;-58
2022/07/16 10:08:03;;;;;;;2.97;1.23;;;23.00;99.90;;;;;;5041836;28;20167;-60
2022/07/16 10:10:29;;;;;;;1.77;1.27;;;23.10;99.60;;;;;;5046784;28;20029;-59
2022/07/16 10:12:54;;;;;;;4.07;1.10;;;23.20;98.70;;;;;;5043996;28;20029;-58
2022/07/16 10:15:21;;;;;;;3.00;1.60;;;23.30;98.60;;;;;;5035189;28;20096;-58
2022/07/16 10:17:46;;;;;;;1.70;1.15;;;23.30;98.00;;;;;;5045230;28;20480;-59
2022/07/16 10:20:18;;;;;;;3.08;1.08;;;23.40;98.10;;;;;;5040453;28;20091;-59
2022/07/16 10:22:46;;;;;;;1.30;0.90;;;23.60;97.50;;;;;;5034651;28;20497;-59
2022/07/16 10:25:14;;;;;;;2.55;1.20;;;23.70;97.20;;;;;;5034176;28;20099;-59
2022/07/16 10:27:42;;;;;;;1.40;1.30;;;23.60;96.80;;;;;;5028416;28;20040;-59
2022/07/16 10:30:23;;;;;;;1.15;0.88;;;24.00;96.80;;;;;;5036481;28;20033;-59
2022/07/16 10:33:16;;;;;;;2.30;0.90;;;23.70;96.10;;;;;;5037411;28;20025;-59
2022/07/16 10:35:47;;;;;;;2.55;1.13;;;24.10;95.90;;;;;;5036162;28;20040;-58
2022/07/16 10:38:14;;;;;;;3.13;1.15;;;24.10;95.00;;;;;;5029746;28;20431;-58
2022/07/16 10:40:42;;;;;;;1.00;0.90;;;24.20;95.20;;;;;;5039979;28;20030;-57
2022/07/16 10:43:13;;;;;;;2.17;1.00;;;24.30;94.40;;;;;;5040515;28;20040;-59
2022/07/16 10:45:50;;;;;;;3.17;1.27;;;24.30;94.10;;;;;;5036898;28;20096;-59
2022/07/16 10:48:16;;;;;;;2.63;1.30;;;24.30;93.70;;;;;;5031211;28;20037;-59
2022/07/16 10:51:20;;;;;;;3.95;1.67;;;24.50;93.40;;;;;;5035576;28;20434;-59
2022/07/16 10:53:58;;;;;;;3.13;1.27;;;24.80;92.50;;;;;;5045578;28;20514;-59
2022/07/16 10:56:45;;;;;;;1.52;1.05;;;24.90;92.10;;;;;;5041655;28;20035;-58
2022/07/16 10:59:13;;;;;;;2.17;1.30;;;24.70;94.70;;;;;;5049131;28;20116;-60
2022/07/16 11:01:43;;;;;;;3.95;0.98;;;24.60;95.60;;;;;;5032189;28;20036;-59
2022/07/16 11:04:10;;;;;;;2.15;1.15;;;24.50;95.90;;;;;;5029458;28;20492;-59
2022/07/16 11:06:38;;;;;;;3.92;1.30;;;24.50;96.40;;;;;;5034451;28;20029;-59
2022/07/16 11:09:06;;;;;;;3.05;1.10;;;24.40;95.90;;;;;;5029066;28;20033;-59
2022/07/16 11:11:40;;;;;;;1.38;0.90;;;24.50;96.20;;;;;;5036086;28;20037;-60
2022/07/16 11:14:07;;;;;;;4.03;1.10;;;24.50;96.00;;;;;;5031345;28;20026;-59
2022/07/16 11:16:34;;;;;;;6.93;0.80;;;24.50;95.80;;;;;;5038089;28;20026;-59
2022/07/16 11:19:03;;;;;;;3.95;1.30;;;24.40;96.20;;;;;;5030502;28;20079;-59
2022/07/16 11:21:31;;;;;;;4.07;0.88;;;24.90;96.00;;;;;;5030335;28;20026;-59
2022/07/16 11:24:05;;;;;;;2.58;1.00;;;25.20;95.20;;;;;;5031391;28;20052;-60
2022/07/16 11:26:30;;;;;;;2.03;0.80;;;25.10;94.00;;;;;;5031505;28;20037;-59
2022/07/16 11:29:02;;;;;;;2.13;1.00;;;25.40;93.80;;;;;;5031101;28;20163;-59
2022/07/16 11:31:36;;;;;;;5.80;1.00;;;25.70;92.70;;;;;;5031226;28;20615;-59
2022/07/16 11:34:07;;;;;;;3.75;1.13;;;25.70;92.50;;;;;;5044011;28;20051;-59
2022/07/16 11:36:34;;;;;;;2.50;0.80;;;25.40;92.80;;;;;;5043755;28;20033;-59
2022/07/16 11:39:03;;;;;;;1.42;0.90;;;25.50;91.60;;;;;;5035025;28;20037;-58
2022/07/16 11:41:31;;;;;;;3.80;1.02;;;25.10;92.20;;;;;;5043440;28;20103;-59
2022/07/16 11:43:57;;;;;;;1.52;0.82;;;25.30;92.60;;;;;;5035955;28;20041;-59
2022/07/16 11:46:24;;;;;;;1.42;1.00;;;25.70;91.40;;;;;;5033387;28;20576;-59
2022/07/16 11:48:49;;;;;;;1.15;0.90;;;26.20;90.70;;;;;;5038937;28;20358;-59
2022/07/16 11:51:15;;;;;;;5.55;1.13;;;26.30;89.80;;;;;;5031137;28;20120;-59
2022/07/16 11:53:41;;;;;;;0.98;0.90;;;26.60;89.10;;;;;;5030980;28;20025;-59
2022/07/16 11:56:07;;;;;;;4.60;1.17;;;26.80;87.00;;;;;;5035402;28;20132;-60
2022/07/16 11:58:33;;;;;;;1.92;1.00;;;26.80;85.80;;;;;;5034817;28;20090;-60
2022/07/16 12:00:59;;;;;;;4.47;1.00;;;27.10;84.30;;;;;;5047156;28;20480;-60
2022/07/16 12:03:25;;;;;;;2.15;0.80;;;27.10;83.70;;;;;;5041391;28;20116;-60
2022/07/16 12:06:01;;;;;;;1.63;1.13;;;27.10;84.40;;;;;;5047888;28;20048;-60
2022/07/16 12:08:27;;;;;;;2.50;0.70;;;27.20;82.80;;;;;;5033099;28;20021;-58
2022/07/16 12:11:00;;;;;;;2.72;0.90;;;27.90;80.80;;;;;;5048651;28;20086;-58
2022/07/16 12:13:26;;;;;;;1.98;1.05;;;27.70;79.40;;;;;;5034484;28;20024;-59
2022/07/16 12:15:53;;;;;;;0.82;0.82;;;27.60;79.60;;;;;;5040036;28;20029;-59
2022/07/16 12:18:19;;;;;;;3.75;0.90;;;27.60;79.30;;;;;;5046994;28;20063;-59
2022/07/16 12:20:45;;;;;;;4.63;1.02;;;27.40;79.60;;;;;;5040676;28;20025;-59
2022/07/16 12:23:11;;;;;;;0.98;0.80;;;27.60;78.30;;;;;;5036420;28;20530;-59
2022/07/16 12:25:42;;;;;;;1.33;0.70;;;27.90;76.60;;;;;;5033073;28;20037;-59
2022/07/16 12:28:09;;;;;;;1.98;0.77;;;27.30;77.20;;;;;;5037025;28;20021;-59
2022/07/16 12:30:59;;;;;;;2.70;0.85;;;27.50;76.10;;;;;;5034876;28;20441;-59
2022/07/16 12:33:27;;;;;;;1.30;0.50;;;28.10;73.90;;;;;;5045415;28;20021;-59
2022/07/16 12:35:56;;;;;;;1.67;0.70;;;28.30;72.20;;;;;;5039625;28;20072;-59
2022/07/16 12:38:34;;;;;;;5.57;1.10;;;27.80;72.90;;;;;;5032166;28;20456;-58
2022/07/16 12:40:59;;;;;;;1.25;0.57;;;27.80;73.90;;;;;;5038115;28;20084;-58
2022/07/16 12:43:25;;;;;;;1.77;0.55;;;28.20;73.00;;;;;;5040774;28;20029;-60
2022/07/16 12:45:51;;;;;;;3.08;0.80;;;28.00;71.00;;;;;;5035339;28;20090;-59
2022/07/16 12:48:17;;;;;;;3.33;0.90;;;28.60;68.90;;;;;;5033738;28;20094;-59
2022/07/16 12:50:43;;;;;;;2.42;0.63;;;28.90;67.20;;;;;;5037202;28;20029;-59
2022/07/16 12:53:08;;;;;;;0.85;0.50;;;28.40;66.50;;;;;;5031667;28;20029;-59
2022/07/16 13:01:02;;;;;;;4.22;0.95;;;28.20;66.20;;;;;;5047113;28;20043;-58